sensor_id;sensor_type;location;lat;lon;timestamp;P1;durP1;ratioP1;P2;durP2;ratioP2
10863;SDS011;5485;37.558;126.950;2023-10-08T00:00:25;5.30;;;3.40;;
10863;SDS011;5485;37.558;126.950;2023-10-08T00:03:11;4.00;;;3.40;;
10863;SDS011;5485;37.558;126.950;2023-10-08T00:05:39;5.43;;;3.83;;
10863;SDS011;5485;37.558;126.950;2023-10-08T00:08:07;4.78;;;3.70;;
10863;SDS011;5485;37.558;126.950;2023-10-08T00:10:35;4.10;;;3.70;;
10863;SDS011;5485;37.558;126.950;2023-10-08T00:13:07;9.65;;;4.00;;
10863;SDS011;5485;37.558;126.950;2023-10-08T00:15:35;3.78;;;3.25;;
10863;SDS011;5485;37.558;126.950;2023-10-08T00:18:06;3.92;;;3.38;;
10863;SDS011;5485;37.558;126.950;2023-10-08T00:20:37;3.85;;;3.40;;
10863;SDS011;5485;37.558;126.950;2023-10-08T00:23:22;4.78;;;3.58;;
10863;SDS011;5485;37.558;126.950;2023-10-08T00:25:51;6.18;;;3.17;;
10863;SDS011;5485;37.558;126.950;2023-10-08T00:28:20;4.40;;;3.80;;
10863;SDS011;5485;37.558;126.950;2023-10-08T00:30:48;6.18;;;4.00;;
10863;SDS011;5485;37.558;126.950;2023-10-08T00:33:15;5.88;;;3.55;;
10863;SDS011;5485;37.558;126.950;2023-10-08T00:35:43;7.15;;;4.00;;
10863;SDS011;5485;37.558;126.950;2023-10-08T00:38:10;4.43;;;3.10;;
10863;SDS011;5485;37.558;126.950;2023-10-08T00:40:41;7.00;;;3.78;;
10863;SDS011;5485;37.558;126.950;2023-10-08T00:46:01;5.82;;;3.55;;
10863;SDS011;5485;37.558;126.950;2023-10-08T00:48:59;6.85;;;3.00;;
10863;SDS011;5485;37.558;126.950;2023-10-08T00:51:45;3.70;;;2.80;;
10863;SDS011;5485;37.558;126.950;2023-10-08T00:54:13;7.40;;;3.00;;
10863;SDS011;5485;37.558;126.950;2023-10-08T00:56:45;3.72;;;3.42;;
10863;SDS011;5485;37.558;126.950;2023-10-08T00:59:23;4.18;;;3.40;;
10863;SDS011;5485;37.558;126.950;2023-10-08T01:01:51;5.15;;;3.72;;
10863;SDS011;5485;37.558;126.950;2023-10-08T01:04:38;5.05;;;3.63;;
10863;SDS011;5485;37.558;126.950;2023-10-08T01:07:10;4.78;;;3.83;;
10863;SDS011;5485;37.558;126.950;2023-10-08T01:09:39;4.03;;;3.58;;
10863;SDS011;5485;37.558;126.950;2023-10-08T01:12:21;4.10;;;3.70;;
10863;SDS011;5485;37.558;126.950;2023-10-08T01:14:54;6.10;;;3.70;;
10863;SDS011;5485;37.558;126.950;2023-10-08T01:17:38;5.20;;;3.38;;
10863;SDS011;5485;37.558;126.950;2023-10-08T01:20:17;6.78;;;3.40;;
10863;SDS011;5485;37.558;126.950;2023-10-08T01:23:09;5.10;;;3.80;;
10863;SDS011;5485;37.558;126.950;2023-10-08T01:25:42;5.55;;;3.70;;
10863;SDS011;5485;37.558;126.950;2023-10-08T01:28:16;7.07;;;3.60;;
10863;SDS011;5485;37.558;126.950;2023-10-08T01:30:51;6.47;;;3.63;;
10863;SDS011;5485;37.558;126.950;2023-10-08T01:33:20;4.07;;;3.35;;
10863;SDS011;5485;37.558;126.950;2023-10-08T01:35:48;4.05;;;3.45;;
10863;SDS011;5485;37.558;126.950;2023-10-08T01:38:14;4.38;;;3.42;;
10863;SDS011;5485;37.558;126.950;2023-10-08T01:40:47;4.57;;;3.15;;
10863;SDS011;5485;37.558;126.950;2023-10-08T01:43:16;5.72;;;3.60;;
10863;SDS011;5485;37.558;126.950;2023-10-08T01:45:44;8.40;;;3.92;;
10863;SDS011;5485;37.558;126.950;2023-10-08T01:48:15;6.03;;;3.47;;
10863;SDS011;5485;37.558;126.950;2023-10-08T01:50:53;3.78;;;3.47;;
10863;SDS011;5485;37.558;126.950;2023-10-08T01:53:37;6.60;;;3.38;;
10863;SDS011;5485;37.558;126.950;2023-10-08T01:56:06;4.82;;;3.78;;
10863;SDS011;5485;37.558;126.950;2023-10-08T01:58:36;7.57;;;4.00;;
10863;SDS011;5485;37.558;126.950;2023-10-08T02:01:03;6.00;;;3.75;;
10863;SDS011;5485;37.558;126.950;2023-10-08T02:03:37;3.75;;;3.28;;
10863;SDS011;5485;37.558;126.950;2023-10-08T02:06:04;5.60;;;3.58;;
10863;SDS011;5485;37.558;126.950;2023-10-08T02:08:34;5.55;;;3.28;;
10863;SDS011;5485;37.558;126.950;2023-10-08T02:11:02;5.68;;;3.42;;
10863;SDS011;5485;37.558;126.950;2023-10-08T02:13:29;5.63;;;3.92;;
10863;SDS011;5485;37.558;126.950;2023-10-08T02:16:00;4.57;;;3.58;;
10863;SDS011;5485;37.558;126.950;2023-10-08T02:18:27;5.60;;;3.70;;
10863;SDS011;5485;37.558;126.950;2023-10-08T02:20:58;3.60;;;3.30;;
10863;SDS011;5485;37.558;126.950;2023-10-08T02:23:26;6.50;;;3.88;;
10863;SDS011;5485;37.558;126.950;2023-10-08T02:25:53;4.90;;;3.92;;
10863;SDS011;5485;37.558;126.950;2023-10-08T02:28:20;4.32;;;3.50;;
10863;SDS011;5485;37.558;126.950;2023-10-08T02:30:49;5.20;;;3.70;;
10863;SDS011;5485;37.558;126.950;2023-10-08T02:33:19;6.30;;;3.95;;
10863;SDS011;5485;37.558;126.950;2023-10-08T02:35:46;6.55;;;3.67;;
10863;SDS011;5485;37.558;126.950;2023-10-08T02:38:16;4.75;;;3.28;;
10863;SDS011;5485;37.558;126.950;2023-10-08T02:40:49;4.20;;;3.25;;
10863;SDS011;5485;37.558;126.950;2023-10-08T02:43:26;5.00;;;3.60;;
10863;SDS011;5485;37.558;126.950;2023-10-08T02:45:54;4.45;;;2.95;;
10863;SDS011;5485;37.558;126.950;2023-10-08T02:48:21;6.40;;;3.25;;
10863;SDS011;5485;37.558;126.950;2023-10-08T02:50:52;3.58;;;3.28;;
10863;SDS011;5485;37.558;126.950;2023-10-08T02:53:20;3.95;;;3.55;;
10863;SDS011;5485;37.558;126.950;2023-10-08T02:55:51;5.35;;;3.63;;
10863;SDS011;5485;37.558;126.950;2023-10-08T02:58:19;3.78;;;3.40;;
10863;SDS011;5485;37.558;126.950;2023-10-08T03:00:49;4.72;;;3.78;;
10863;SDS011;5485;37.558;126.950;2023-10-08T03:03:18;3.60;;;3.03;;
10863;SDS011;5485;37.558;126.950;2023-10-08T03:05:48;4.45;;;3.30;;
10863;SDS011;5485;37.558;126.950;2023-10-08T03:08:16;4.90;;;3.78;;
10863;SDS011;5485;37.558;126.950;2023-10-08T03:10:48;5.20;;;3.40;;
10863;SDS011;5485;37.558;126.950;2023-10-08T03:13:21;5.18;;;3.80;;
10863;SDS011;5485;37.558;126.950;2023-10-08T03:15:48;6.30;;;4.35;;
10863;SDS011;5485;37.558;126.950;2023-10-08T03:18:36;4.97;;;3.13;;
10863;SDS011;5485;37.558;126.950;2023-10-08T03:21:15;4.45;;;3.58;;
10863;SDS011;5485;37.558;126.950;2023-10-08T03:24:01;5.45;;;3.83;;
10863;SDS011;5485;37.558;126.950;2023-10-08T03:26:37;4.25;;;3.20;;
10863;SDS011;5485;37.558;126.950;2023-10-08T03:29:05;4.20;;;3.80;;
10863;SDS011;5485;37.558;126.950;2023-10-08T03:31:41;4.43;;;3.00;;
10863;SDS011;5485;37.558;126.950;2023-10-08T03:34:14;5.70;;;3.60;;
10863;SDS011;5485;37.558;126.950;2023-10-08T03:36:44;3.85;;;3.40;;
10863;SDS011;5485;37.558;126.950;2023-10-08T03:39:13;5.10;;;3.60;;
10863;SDS011;5485;37.558;126.950;2023-10-08T03:41:41;4.05;;;3.58;;
10863;SDS011;5485;37.558;126.950;2023-10-08T03:44:17;3.88;;;2.80;;
10863;SDS011;5485;37.558;126.950;2023-10-08T03:46:46;7.68;;;3.58;;
10863;SDS011;5485;37.558;126.950;2023-10-08T03:49:13;3.50;;;3.17;;
10863;SDS011;5485;37.558;126.950;2023-10-08T03:51:47;4.00;;;3.20;;
10863;SDS011;5485;37.558;126.950;2023-10-08T03:54:20;4.00;;;3.70;;
10863;SDS011;5485;37.558;126.950;2023-10-08T03:57:16;5.30;;;3.53;;
10863;SDS011;5485;37.558;126.950;2023-10-08T04:00:07;3.85;;;3.38;;
10863;SDS011;5485;37.558;126.950;2023-10-08T04:02:42;3.60;;;3.30;;
10863;SDS011;5485;37.558;126.950;2023-10-08T04:05:26;3.80;;;3.42;;
10863;SDS011;5485;37.558;126.950;2023-10-08T04:07:58;6.30;;;3.42;;
10863;SDS011;5485;37.558;126.950;2023-10-08T04:10:28;5.20;;;3.72;;
10863;SDS011;5485;37.558;126.950;2023-10-08T04:13:01;3.53;;;3.20;;
10863;SDS011;5485;37.558;126.950;2023-10-08T04:15:29;6.68;;;3.58;;
10863;SDS011;5485;37.558;126.950;2023-10-08T04:17:55;4.22;;;3.70;;
10863;SDS011;5485;37.558;126.950;2023-10-08T04:20:23;5.28;;;3.75;;
10863;SDS011;5485;37.558;126.950;2023-10-08T04:23:04;5.20;;;3.60;;
10863;SDS011;5485;37.558;126.950;2023-10-08T04:25:39;4.47;;;3.60;;
10863;SDS011;5485;37.558;126.950;2023-10-08T04:28:12;5.93;;;4.68;;
10863;SDS011;5485;37.558;126.950;2023-10-08T04:30:42;5.18;;;3.95;;
10863;SDS011;5485;37.558;126.950;2023-10-08T04:33:11;3.72;;;3.30;;
10863;SDS011;5485;37.558;126.950;2023-10-08T04:35:39;4.20;;;3.30;;
10863;SDS011;5485;37.558;126.950;2023-10-08T04:38:27;4.65;;;4.10;;
10863;SDS011;5485;37.558;126.950;2023-10-08T04:40:55;6.93;;;4.13;;
10863;SDS011;5485;37.558;126.950;2023-10-08T04:43:27;7.75;;;4.18;;
10863;SDS011;5485;37.558;126.950;2023-10-08T04:45:58;4.40;;;3.80;;
10863;SDS011;5485;37.558;126.950;2023-10-08T04:48:46;4.25;;;3.58;;
10863;SDS011;5485;37.558;126.950;2023-10-08T04:51:15;4.25;;;3.58;;
10863;SDS011;5485;37.558;126.950;2023-10-08T04:53:43;4.13;;;3.72;;
10863;SDS011;5485;37.558;126.950;2023-10-08T04:56:13;5.00;;;4.00;;
10863;SDS011;5485;37.558;126.950;2023-10-08T04:58:47;6.43;;;3.90;;
10863;SDS011;5485;37.558;126.950;2023-10-08T05:01:15;4.50;;;3.53;;
10863;SDS011;5485;37.558;126.950;2023-10-08T05:03:47;4.22;;;3.83;;
10863;SDS011;5485;37.558;126.950;2023-10-08T05:06:28;8.38;;;3.70;;
10863;SDS011;5485;37.558;126.950;2023-10-08T05:11:46;4.00;;;3.60;;
10863;SDS011;5485;37.558;126.950;2023-10-08T05:14:20;4.47;;;3.75;;
10863;SDS011;5485;37.558;126.950;2023-10-08T05:17:14;4.68;;;3.58;;
10863;SDS011;5485;37.558;126.950;2023-10-08T05:19:43;3.90;;;3.60;;
10863;SDS011;5485;37.558;126.950;2023-10-08T05:22:17;4.15;;;3.75;;
10863;SDS011;5485;37.558;126.950;2023-10-08T05:24:47;3.60;;;3.30;;
10863;SDS011;5485;37.558;126.950;2023-10-08T05:27:36;3.88;;;3.35;;
10863;SDS011;5485;37.558;126.950;2023-10-08T05:30:25;3.83;;;3.45;;
10863;SDS011;5485;37.558;126.950;2023-10-08T05:33:18;4.07;;;3.55;;
10863;SDS011;5485;37.558;126.950;2023-10-08T05:36:03;7.05;;;3.30;;
10863;SDS011;5485;37.558;126.950;2023-10-08T05:38:43;6.75;;;3.17;;
10863;SDS011;5485;37.558;126.950;2023-10-08T05:41:28;4.28;;;3.25;;
10863;SDS011;5485;37.558;126.950;2023-10-08T05:44:05;5.65;;;3.45;;
10863;SDS011;5485;37.558;126.950;2023-10-08T05:46:41;4.40;;;3.58;;
10863;SDS011;5485;37.558;126.950;2023-10-08T05:49:35;4.15;;;3.40;;
10863;SDS011;5485;37.558;126.950;2023-10-08T05:52:04;5.53;;;3.13;;
10863;SDS011;5485;37.558;126.950;2023-10-08T05:54:32;3.65;;;3.20;;
10863;SDS011;5485;37.558;126.950;2023-10-08T05:57:12;3.55;;;3.25;;
10863;SDS011;5485;37.558;126.950;2023-10-08T06:04:59;4.03;;;2.75;;
10863;SDS011;5485;37.558;126.950;2023-10-08T06:07:53;4.07;;;3.67;;
10863;SDS011;5485;37.558;126.950;2023-10-08T06:10:24;3.83;;;3.45;;
10863;SDS011;5485;37.558;126.950;2023-10-08T06:13:01;3.78;;;3.13;;
10863;SDS011;5485;37.558;126.950;2023-10-08T06:15:42;3.50;;;3.20;;
10863;SDS011;5485;37.558;126.950;2023-10-08T06:20:53;3.40;;;3.08;;
10863;SDS011;5485;37.558;126.950;2023-10-08T06:23:21;4.22;;;3.10;;
10863;SDS011;5485;37.558;126.950;2023-10-08T06:25:50;7.28;;;3.38;;
10863;SDS011;5485;37.558;126.950;2023-10-08T06:28:37;3.47;;;3.17;;
10863;SDS011;5485;37.558;126.950;2023-10-08T06:31:05;3.38;;;3.08;;
10863;SDS011;5485;37.558;126.950;2023-10-08T06:33:42;3.40;;;3.10;;
10863;SDS011;5485;37.558;126.950;2023-10-08T06:36:11;3.17;;;2.90;;
10863;SDS011;5485;37.558;126.950;2023-10-08T06:38:40;3.63;;;3.15;;
10863;SDS011;5485;37.558;126.950;2023-10-08T06:41:14;3.22;;;3.00;;
10863;SDS011;5485;37.558;126.950;2023-10-08T06:43:47;3.33;;;3.03;;
10863;SDS011;5485;37.558;126.950;2023-10-08T06:46:15;5.97;;;3.00;;
10863;SDS011;5485;37.558;126.950;2023-10-08T06:48:46;3.40;;;3.10;;
10863;SDS011;5485;37.558;126.950;2023-10-08T06:51:15;3.20;;;2.55;;
10863;SDS011;5485;37.558;126.950;2023-10-08T06:53:46;3.83;;;2.80;;
10863;SDS011;5485;37.558;126.950;2023-10-08T06:56:13;3.25;;;2.85;;
10863;SDS011;5485;37.558;126.950;2023-10-08T06:58:44;3.50;;;3.00;;
10863;SDS011;5485;37.558;126.950;2023-10-08T07:01:18;3.40;;;2.65;;
10863;SDS011;5485;37.558;126.950;2023-10-08T07:03:50;2.78;;;2.58;;
10863;SDS011;5485;37.558;126.950;2023-10-08T07:06:21;2.67;;;2.47;;
10863;SDS011;5485;37.558;126.950;2023-10-08T07:08:52;3.03;;;2.72;;
10863;SDS011;5485;37.558;126.950;2023-10-08T07:11:25;3.15;;;2.67;;
10863;SDS011;5485;37.558;126.950;2023-10-08T07:13:52;2.75;;;2.55;;
10863;SDS011;5485;37.558;126.950;2023-10-08T07:16:20;2.50;;;2.25;;
10863;SDS011;5485;37.558;126.950;2023-10-08T07:18:48;2.30;;;2.10;;
10863;SDS011;5485;37.558;126.950;2023-10-08T07:21:20;3.00;;;2.30;;
10863;SDS011;5485;37.558;126.950;2023-10-08T07:24:11;2.30;;;2.10;;
10863;SDS011;5485;37.558;126.950;2023-10-08T07:26:43;3.03;;;2.22;;
10863;SDS011;5485;37.558;126.950;2023-10-08T07:29:13;2.25;;;2.10;;
10863;SDS011;5485;37.558;126.950;2023-10-08T07:31:45;2.40;;;2.00;;
10863;SDS011;5485;37.558;126.950;2023-10-08T07:34:17;3.03;;;2.10;;
10863;SDS011;5485;37.558;126.950;2023-10-08T07:36:57;2.20;;;2.10;;
10863;SDS011;5485;37.558;126.950;2023-10-08T07:39:24;4.32;;;2.38;;
10863;SDS011;5485;37.558;126.950;2023-10-08T07:42:00;2.25;;;2.13;;
10863;SDS011;5485;37.558;126.950;2023-10-08T07:44:30;4.57;;;2.40;;
10863;SDS011;5485;37.558;126.950;2023-10-08T07:47:01;2.35;;;2.20;;
10863;SDS011;5485;37.558;126.950;2023-10-08T07:49:46;2.28;;;2.17;;
10863;SDS011;5485;37.558;126.950;2023-10-08T07:52:13;2.83;;;2.03;;
10863;SDS011;5485;37.558;126.950;2023-10-08T07:54:41;3.97;;;2.45;;
10863;SDS011;5485;37.558;126.950;2023-10-08T07:57:08;2.25;;;2.05;;
10863;SDS011;5485;37.558;126.950;2023-10-08T07:59:42;3.45;;;2.10;;
10863;SDS011;5485;37.558;126.950;2023-10-08T08:02:12;3.03;;;2.33;;
10863;SDS011;5485;37.558;126.950;2023-10-08T08:04:42;4.57;;;2.83;;
10863;SDS011;5485;37.558;126.950;2023-10-08T08:07:16;2.30;;;1.90;;
10863;SDS011;5485;37.558;126.950;2023-10-08T08:09:43;2.83;;;2.53;;
10863;SDS011;5485;37.558;126.950;2023-10-08T08:12:24;4.45;;;2.40;;
10863;SDS011;5485;37.558;126.950;2023-10-08T08:14:53;3.55;;;2.50;;
10863;SDS011;5485;37.558;126.950;2023-10-08T08:17:21;3.05;;;2.53;;
10863;SDS011;5485;37.558;126.950;2023-10-08T08:19:48;2.47;;;2.28;;
10863;SDS011;5485;37.558;126.950;2023-10-08T08:22:17;2.42;;;2.22;;
10863;SDS011;5485;37.558;126.950;2023-10-08T08:24:56;2.50;;;2.35;;
10863;SDS011;5485;37.558;126.950;2023-10-08T08:27:41;3.58;;;2.53;;
10863;SDS011;5485;37.558;126.950;2023-10-08T08:30:12;3.00;;;2.70;;
10863;SDS011;5485;37.558;126.950;2023-10-08T08:32:44;5.57;;;2.75;;
10863;SDS011;5485;37.558;126.950;2023-10-08T08:35:16;3.55;;;2.75;;
10863;SDS011;5485;37.558;126.950;2023-10-08T08:37:45;2.92;;;2.67;;
10863;SDS011;5485;37.558;126.950;2023-10-08T08:40:36;2.60;;;2.40;;
10863;SDS011;5485;37.558;126.950;2023-10-08T08:43:03;3.25;;;2.58;;
10863;SDS011;5485;37.558;126.950;2023-10-08T08:45:32;4.07;;;2.70;;
10863;SDS011;5485;37.558;126.950;2023-10-08T08:48:06;4.40;;;3.33;;
10863;SDS011;5485;37.558;126.950;2023-10-08T08:50:33;3.35;;;2.75;;
10863;SDS011;5485;37.558;126.950;2023-10-08T08:53:03;3.08;;;2.35;;
10863;SDS011;5485;37.558;126.950;2023-10-08T08:55:31;3.15;;;2.95;;
10863;SDS011;5485;37.558;126.950;2023-10-08T08:58:01;3.17;;;2.88;;
10863;SDS011;5485;37.558;126.950;2023-10-08T09:00:30;3.20;;;2.90;;
10863;SDS011;5485;37.558;126.950;2023-10-08T09:02:58;4.50;;;3.42;;
10863;SDS011;5485;37.558;126.950;2023-10-08T09:05:25;3.28;;;2.80;;
10863;SDS011;5485;37.558;126.950;2023-10-08T09:07:59;3.63;;;2.92;;
10863;SDS011;5485;37.558;126.950;2023-10-08T09:10:32;3.35;;;3.05;;
10863;SDS011;5485;37.558;126.950;2023-10-08T09:13:04;4.25;;;3.00;;
10863;SDS011;5485;37.558;126.950;2023-10-08T09:15:34;4.90;;;3.13;;
10863;SDS011;5485;37.558;126.950;2023-10-08T09:18:05;3.17;;;2.63;;
10863;SDS011;5485;37.558;126.950;2023-10-08T09:20:37;5.10;;;3.03;;
10863;SDS011;5485;37.558;126.950;2023-10-08T09:23:14;3.15;;;2.83;;
10863;SDS011;5485;37.558;126.950;2023-10-08T09:25:43;3.40;;;3.10;;
10863;SDS011;5485;37.558;126.950;2023-10-08T09:28:11;5.13;;;3.70;;
10863;SDS011;5485;37.558;126.950;2023-10-08T09:30:42;4.90;;;3.17;;
10863;SDS011;5485;37.558;126.950;2023-10-08T09:33:13;3.97;;;3.42;;
10863;SDS011;5485;37.558;126.950;2023-10-08T09:35:43;4.50;;;3.38;;
10863;SDS011;5485;37.558;126.950;2023-10-08T09:38:12;4.45;;;3.50;;
10863;SDS011;5485;37.558;126.950;2023-10-08T09:40:47;4.28;;;3.88;;
10863;SDS011;5485;37.558;126.950;2023-10-08T09:43:15;3.40;;;3.05;;
10863;SDS011;5485;37.558;126.950;2023-10-08T09:45:43;4.13;;;3.42;;
10863;SDS011;5485;37.558;126.950;2023-10-08T09:48:19;5.70;;;3.60;;
10863;SDS011;5485;37.558;126.950;2023-10-08T09:50:48;3.53;;;3.22;;
10863;SDS011;5485;37.558;126.950;2023-10-08T09:53:22;5.05;;;3.38;;
10863;SDS011;5485;37.558;126.950;2023-10-08T09:56:13;6.10;;;3.75;;
10863;SDS011;5485;37.558;126.950;2023-10-08T09:58:43;3.95;;;3.28;;
10863;SDS011;5485;37.558;126.950;2023-10-08T10:01:21;4.40;;;3.40;;
10863;SDS011;5485;37.558;126.950;2023-10-08T10:03:51;4.25;;;3.78;;
10863;SDS011;5485;37.558;126.950;2023-10-08T10:06:20;5.30;;;3.17;;
10863;SDS011;5485;37.558;126.950;2023-10-08T10:08:48;11.02;;;4.10;;
10863;SDS011;5485;37.558;126.950;2023-10-08T10:11:15;5.40;;;3.10;;
10863;SDS011;5485;37.558;126.950;2023-10-08T10:13:43;3.72;;;2.97;;
10863;SDS011;5485;37.558;126.950;2023-10-08T10:16:13;3.70;;;3.33;;
10863;SDS011;5485;37.558;126.950;2023-10-08T10:18:44;5.22;;;4.47;;
10863;SDS011;5485;37.558;126.950;2023-10-08T10:23:44;4.57;;;3.25;;
10863;SDS011;5485;37.558;126.950;2023-10-08T10:26:34;3.90;;;3.50;;
10863;SDS011;5485;37.558;126.950;2023-10-08T10:31:42;4.78;;;3.25;;
10863;SDS011;5485;37.558;126.950;2023-10-08T10:34:23;5.55;;;4.47;;
10863;SDS011;5485;37.558;126.950;2023-10-08T10:36:53;4.85;;;3.65;;
10863;SDS011;5485;37.558;126.950;2023-10-08T10:39:24;4.13;;;3.60;;
10863;SDS011;5485;37.558;126.950;2023-10-08T10:41:56;4.20;;;3.67;;
10863;SDS011;5485;37.558;126.950;2023-10-08T10:44:30;6.32;;;5.57;;
10863;SDS011;5485;37.558;126.950;2023-10-08T10:46:59;7.68;;;4.60;;
10863;SDS011;5485;37.558;126.950;2023-10-08T10:49:47;5.35;;;3.55;;
10863;SDS011;5485;37.558;126.950;2023-10-08T10:52:25;5.10;;;4.60;;
10863;SDS011;5485;37.558;126.950;2023-10-08T10:55:17;7.63;;;4.10;;
10863;SDS011;5485;37.558;126.950;2023-10-08T10:57:54;4.28;;;3.72;;
10863;SDS011;5485;37.558;126.950;2023-10-08T11:00:22;4.18;;;3.50;;
10863;SDS011;5485;37.558;126.950;2023-10-08T11:02:59;4.90;;;3.70;;
10863;SDS011;5485;37.558;126.950;2023-10-08T11:05:48;6.90;;;4.00;;
10863;SDS011;5485;37.558;126.950;2023-10-08T11:08:25;6.95;;;3.92;;
10863;SDS011;5485;37.558;126.950;2023-10-08T11:11:00;5.80;;;3.70;;
10863;SDS011;5485;37.558;126.950;2023-10-08T11:13:32;5.47;;;3.53;;
10863;SDS011;5485;37.558;126.950;2023-10-08T11:16:04;5.70;;;3.50;;
10863;SDS011;5485;37.558;126.950;2023-10-08T11:18:53;3.92;;;3.53;;
10863;SDS011;5485;37.558;126.950;2023-10-08T11:21:31;6.32;;;3.55;;
10863;SDS011;5485;37.558;126.950;2023-10-08T11:24:01;4.20;;;3.33;;
10863;SDS011;5485;37.558;126.950;2023-10-08T11:26:37;6.22;;;3.60;;
10863;SDS011;5485;37.558;126.950;2023-10-08T11:29:27;3.65;;;3.33;;
10863;SDS011;5485;37.558;126.950;2023-10-08T11:31:54;4.88;;;3.63;;
10863;SDS011;5485;37.558;126.950;2023-10-08T11:34:22;4.60;;;3.60;;
10863;SDS011;5485;37.558;126.950;2023-10-08T11:37:02;7.45;;;3.40;;
10863;SDS011;5485;37.558;126.950;2023-10-08T11:39:39;6.88;;;3.67;;
10863;SDS011;5485;37.558;126.950;2023-10-08T11:42:10;4.50;;;3.55;;
10863;SDS011;5485;37.558;126.950;2023-10-08T11:44:56;4.00;;;3.35;;
10863;SDS011;5485;37.558;126.950;2023-10-08T11:47:43;3.92;;;3.38;;
10863;SDS011;5485;37.558;126.950;2023-10-08T11:50:16;3.40;;;3.15;;
10863;SDS011;5485;37.558;126.950;2023-10-08T11:52:45;5.38;;;3.15;;
10863;SDS011;5485;37.558;126.950;2023-10-08T11:55:12;4.60;;;3.83;;
10863;SDS011;5485;37.558;126.950;2023-10-08T11:57:48;5.63;;;3.42;;
10863;SDS011;5485;37.558;126.950;2023-10-08T12:00:18;3.60;;;3.03;;
10863;SDS011;5485;37.558;126.950;2023-10-08T12:02:46;3.60;;;3.30;;
10863;SDS011;5485;37.558;126.950;2023-10-08T12:05:16;5.78;;;3.78;;
10863;SDS011;5485;37.558;126.950;2023-10-08T12:07:49;5.47;;;3.42;;
10863;SDS011;5485;37.558;126.950;2023-10-08T12:10:17;4.95;;;3.40;;
10863;SDS011;5485;37.558;126.950;2023-10-08T12:12:49;5.60;;;3.60;;
10863;SDS011;5485;37.558;126.950;2023-10-08T12:15:21;5.18;;;3.50;;
10863;SDS011;5485;37.558;126.950;2023-10-08T12:17:56;4.07;;;3.30;;
10863;SDS011;5485;37.558;126.950;2023-10-08T12:20:41;4.68;;;3.65;;
10863;SDS011;5485;37.558;126.950;2023-10-08T12:23:10;3.97;;;3.38;;
10863;SDS011;5485;37.558;126.950;2023-10-08T12:25:53;4.25;;;3.30;;
10863;SDS011;5485;37.558;126.950;2023-10-08T12:28:24;6.88;;;3.17;;
10863;SDS011;5485;37.558;126.950;2023-10-08T12:30:57;3.30;;;3.00;;
10863;SDS011;5485;37.558;126.950;2023-10-08T12:33:26;3.40;;;3.10;;
10863;SDS011;5485;37.558;126.950;2023-10-08T12:35:55;4.07;;;3.20;;
10863;SDS011;5485;37.558;126.950;2023-10-08T12:38:38;5.32;;;3.88;;
10863;SDS011;5485;37.558;126.950;2023-10-08T12:41:09;4.28;;;3.15;;
10863;SDS011;5485;37.558;126.950;2023-10-08T12:43:40;4.82;;;3.67;;
10863;SDS011;5485;37.558;126.950;2023-10-08T12:46:18;4.88;;;3.70;;
10863;SDS011;5485;37.558;126.950;2023-10-08T12:48:51;4.75;;;3.75;;
10863;SDS011;5485;37.558;126.950;2023-10-08T12:51:20;4.18;;;3.78;;
10863;SDS011;5485;37.558;126.950;2023-10-08T12:53:51;3.60;;;3.30;;
10863;SDS011;5485;37.558;126.950;2023-10-08T12:56:28;3.72;;;3.42;;
10863;SDS011;5485;37.558;126.950;2023-10-08T12:59:10;5.28;;;2.95;;
10863;SDS011;5485;37.558;126.950;2023-10-08T13:01:46;3.67;;;3.28;;
10863;SDS011;5485;37.558;126.950;2023-10-08T13:04:17;3.72;;;3.00;;
10863;SDS011;5485;37.558;126.950;2023-10-08T13:06:52;4.80;;;3.78;;
10863;SDS011;5485;37.558;126.950;2023-10-08T13:09:23;5.95;;;3.53;;
10863;SDS011;5485;37.558;126.950;2023-10-08T13:11:51;3.63;;;3.30;;
10863;SDS011;5485;37.558;126.950;2023-10-08T13:14:18;4.93;;;3.08;;
10863;SDS011;5485;37.558;126.950;2023-10-08T13:16:55;4.20;;;3.30;;
10863;SDS011;5485;37.558;126.950;2023-10-08T13:19:22;3.47;;;3.10;;
10863;SDS011;5485;37.558;126.950;2023-10-08T13:21:49;3.55;;;3.10;;
10863;SDS011;5485;37.558;126.950;2023-10-08T13:24:20;4.07;;;3.28;;
10863;SDS011;5485;37.558;126.950;2023-10-08T13:26:47;6.80;;;3.60;;
10863;SDS011;5485;37.558;126.950;2023-10-08T13:29:14;5.00;;;3.42;;
10863;SDS011;5485;37.558;126.950;2023-10-08T13:31:44;5.07;;;3.55;;
10863;SDS011;5485;37.558;126.950;2023-10-08T13:34:11;5.05;;;3.17;;
10863;SDS011;5485;37.558;126.950;2023-10-08T13:36:41;4.15;;;3.70;;
10863;SDS011;5485;37.558;126.950;2023-10-08T13:39:12;3.58;;;3.28;;
10863;SDS011;5485;37.558;126.950;2023-10-08T13:41:47;4.07;;;3.65;;
10863;SDS011;5485;37.558;126.950;2023-10-08T13:44:14;4.82;;;3.42;;
10863;SDS011;5485;37.558;126.950;2023-10-08T13:46:42;4.57;;;3.42;;
10863;SDS011;5485;37.558;126.950;2023-10-08T13:49:15;6.32;;;3.40;;
10863;SDS011;5485;37.558;126.950;2023-10-08T13:51:43;7.70;;;3.55;;
10863;SDS011;5485;37.558;126.950;2023-10-08T13:54:12;6.20;;;3.45;;
10863;SDS011;5485;37.558;126.950;2023-10-08T13:56:40;4.18;;;3.20;;
10863;SDS011;5485;37.558;126.950;2023-10-08T13:59:14;5.45;;;3.00;;
10863;SDS011;5485;37.558;126.950;2023-10-08T14:01:42;3.47;;;3.08;;
10863;SDS011;5485;37.558;126.950;2023-10-08T14:04:16;4.45;;;3.30;;
10863;SDS011;5485;37.558;126.950;2023-10-08T14:06:51;3.78;;;3.40;;
10863;SDS011;5485;37.558;126.950;2023-10-08T14:09:21;4.18;;;3.60;;
10863;SDS011;5485;37.558;126.950;2023-10-08T14:11:56;4.70;;;3.20;;
10863;SDS011;5485;37.558;126.950;2023-10-08T14:14:24;4.82;;;3.15;;
10863;SDS011;5485;37.558;126.950;2023-10-08T14:16:55;3.33;;;3.03;;
10863;SDS011;5485;37.558;126.950;2023-10-08T14:19:29;3.53;;;2.88;;
10863;SDS011;5485;37.558;126.950;2023-10-08T14:22:08;3.42;;;3.10;;
10863;SDS011;5485;37.558;126.950;2023-10-08T14:24:39;3.50;;;3.10;;
10863;SDS011;5485;37.558;126.950;2023-10-08T14:27:06;4.15;;;3.10;;
10863;SDS011;5485;37.558;126.950;2023-10-08T14:29:37;6.70;;;3.05;;
10863;SDS011;5485;37.558;126.950;2023-10-08T14:32:15;5.25;;;3.25;;
10863;SDS011;5485;37.558;126.950;2023-10-08T14:34:42;4.05;;;2.95;;
10863;SDS011;5485;37.558;126.950;2023-10-08T14:37:13;3.38;;;3.03;;
10863;SDS011;5485;37.558;126.950;2023-10-08T14:39:59;5.10;;;3.10;;
10863;SDS011;5485;37.558;126.950;2023-10-08T14:42:44;4.22;;;2.70;;
10863;SDS011;5485;37.558;126.950;2023-10-08T14:45:29;4.93;;;3.45;;
10863;SDS011;5485;37.558;126.950;2023-10-08T14:48:03;7.15;;;4.03;;
10863;SDS011;5485;37.558;126.950;2023-10-08T14:50:36;5.43;;;3.65;;
10863;SDS011;5485;37.558;126.950;2023-10-08T14:53:08;3.58;;;3.25;;
10863;SDS011;5485;37.558;126.950;2023-10-08T14:55:36;4.05;;;3.45;;
10863;SDS011;5485;37.558;126.950;2023-10-08T14:58:07;4.13;;;3.72;;
10863;SDS011;5485;37.558;126.950;2023-10-08T15:00:36;6.05;;;3.42;;
10863;SDS011;5485;37.558;126.950;2023-10-08T15:03:04;5.63;;;3.50;;
10863;SDS011;5485;37.558;126.950;2023-10-08T15:05:31;5.78;;;3.78;;
10863;SDS011;5485;37.558;126.950;2023-10-08T15:07:58;3.42;;;3.05;;
10863;SDS011;5485;37.558;126.950;2023-10-08T15:10:25;4.43;;;3.03;;
10863;SDS011;5485;37.558;126.950;2023-10-08T15:12:56;3.17;;;2.83;;
10863;SDS011;5485;37.558;126.950;2023-10-08T15:15:22;3.70;;;3.22;;
10863;SDS011;5485;37.558;126.950;2023-10-08T15:17:50;4.50;;;3.58;;
10863;SDS011;5485;37.558;126.950;2023-10-08T15:20:17;3.45;;;3.15;;
10863;SDS011;5485;37.558;126.950;2023-10-08T15:22:49;4.32;;;3.47;;
10863;SDS011;5485;37.558;126.950;2023-10-08T15:25:19;4.93;;;3.53;;